Time;durP1;ratioP1;P1;durP2;ratioP2;P2;SDS_P1;SDS_P2;PMS_P1;PMS_P2;Temp;Humidity;BMP_temperature;BMP_pressure;BME280_temperature;BME280_humidity;BME280_pressure;Samples;Min_cycle;Max_cycle;Signal;HPM_P1;HPM_P2
2021/12/29 00:01:46;;;;;;;20.05;3.83;;;;;;;8.29;100.00;100201.81;4842316;29;20026;-83
2021/12/29 00:04:12;;;;;;;18.17;3.83;;;;;;;8.26;100.00;100212.53;4842385;29;20042;-71
2021/12/29 00:06:37;;;;;;;19.67;3.85;;;;;;;8.28;100.00;100217.72;4841715;29;20057;-84
2021/12/29 00:09:02;;;;;;;18.38;3.97;;;;;;;8.29;100.00;100211.53;4842631;29;20386;-83
2021/12/29 00:11:29;;;;;;;17.70;3.85;;;;;;;8.31;100.00;100215.81;4842903;29;20043;-82
2021/12/29 00:13:54;;;;;;;16.85;3.70;;;;;;;8.32;100.00;100224.56;4842016;29;20029;-76
2021/12/29 00:16:19;;;;;;;18.77;4.32;;;;;;;8.33;100.00;100218.38;4842360;29;20112;-71
2021/12/29 00:18:45;;;;;;;16.23;4.22;;;;;;;8.32;100.00;100219.28;4843160;29;20519;-71
2021/12/29 00:21:11;;;;;;;19.75;3.75;;;;;;;8.28;100.00;100229.13;4842539;29;20037;-71
2021/12/29 00:23:37;;;;;;;12.07;3.60;;;;;;;8.29;100.00;100236.13;4842329;29;20026;-71
2021/12/29 00:26:04;;;;;;;17.25;4.25;;;;;;;8.35;100.00;100248.16;4842306;29;20045;-83
2021/12/29 00:28:29;;;;;;;13.70;3.53;;;;;;;8.36;100.00;100242.84;4842130;29;20098;-71
2021/12/29 00:30:55;;;;;;;18.02;5.38;;;;;;;8.36;100.00;100250.75;4842729;29;20079;-72
2021/12/29 00:33:20;;;;;;;11.93;3.05;;;;;;;8.35;100.00;100251.69;4844195;29;20038;-72
2021/12/29 00:35:46;;;;;;;14.10;3.78;;;;;;;8.36;100.00;100250.75;4844416;29;20034;-76
2021/12/29 00:38:12;;;;;;;14.90;3.25;;;;;;;8.36;100.00;100252.53;4842252;29;20085;-82
2021/12/29 00:40:39;;;;;;;12.55;3.30;;;;;;;8.34;100.00;100260.50;4842444;29;20379;-74
2021/12/29 00:43:05;;;;;;;16.38;3.25;;;;;;;8.33;100.00;100252.66;4842192;29;20098;-77
2021/12/29 00:45:35;;;;;;;15.27;3.22;;;;;;;8.34;100.00;100262.31;4840939;29;20120;-82
2021/12/29 00:48:01;;;;;;;11.68;3.35;;;;;;;8.34;100.00;100260.50;4841365;29;20030;-75
2021/12/29 00:50:26;;;;;;;12.73;2.80;;;;;;;8.32;100.00;100262.34;4842492;29;20038;-74
2021/12/29 00:52:51;;;;;;;15.10;2.78;;;;;;;8.28;100.00;100268.69;4842117;29;20038;-74
2021/12/29 00:55:17;;;;;;;11.70;2.60;;;;;;;8.28;100.00;100266.06;4841659;29;20386;-81
2021/12/29 00:57:44;;;;;;;9.13;2.38;;;;;;;8.30;100.00;100273.91;4841744;29;20082;-76
2021/12/29 01:00:18;;;;;;;15.30;2.78;;;;;;;8.27;100.00;100280.16;4841985;29;20025;-72
2021/12/29 01:02:44;;;;;;;13.20;2.85;;;;;;;8.28;100.00;100281.88;4842048;29;20034;-77
2021/12/29 01:05:10;;;;;;;13.48;2.75;;;;;;;8.31;100.00;100292.31;4841874;29;20036;-81
2021/12/29 01:07:36;;;;;;;9.77;2.60;;;;;;;8.31;100.00;100312.53;4841429;29;20049;-79
2021/12/29 01:10:03;;;;;;;10.82;2.70;;;;;;;8.34;100.00;100315.06;4841830;29;20038;-83
2021/12/29 01:12:29;;;;;;;10.40;2.70;;;;;;;8.35;100.00;100316.75;4842057;29;20030;-76
2021/12/29 01:14:56;;;;;;;9.23;2.67;;;;;;;8.34;100.00;100315.06;4841618;29;20029;-73
2021/12/29 01:17:23;;;;;;;11.55;2.67;;;;;;;8.29;100.00;100320.53;4841020;29;20112;-73
2021/12/29 01:19:50;;;;;;;12.02;3.17;;;;;;;8.28;100.00;100317.97;4841537;29;20037;-83
2021/12/29 01:22:16;;;;;;;10.93;2.40;;;;;;;8.28;100.00;100326.72;4841550;29;20385;-81
2021/12/29 01:24:46;;;;;;;9.02;2.45;;;;;;;8.26;100.00;100344.41;4841775;29;20030;-78
2021/12/29 01:27:12;;;;;;;13.77;3.00;;;;;;;8.26;100.00;100347.06;4841364;29;20077;-73
2021/12/29 01:29:37;;;;;;;8.55;2.20;;;;;;;8.27;100.00;100343.47;4840849;29;20155;-83
2021/12/29 01:32:03;;;;;;;7.32;2.25;;;;;;;8.26;100.00;100362.88;4841728;29;20563;-78
2021/12/29 01:34:29;;;;;;;12.63;2.58;;;;;;;8.28;100.00;100360.19;4841573;29;20042;-82
2021/12/29 01:36:55;;;;;;;10.77;2.50;;;;;;;8.23;100.00;100365.63;4841416;29;20053;-83
2021/12/29 01:39:21;;;;;;;12.30;3.25;;;;;;;8.23;100.00;100370.06;4840784;29;20063;-82
2021/12/29 01:41:49;;;;;;;9.80;2.53;;;;;;;8.27;100.00;100369.00;4841612;29;20030;-82
2021/12/29 01:44:16;;;;;;;10.70;2.55;;;;;;;8.23;100.00;100363.00;4841066;29;20050;-83
2021/12/29 01:46:44;;;;;;;10.10;2.22;;;;;;;8.29;100.00;100383.00;4841700;29;20030;-83
2021/12/29 01:49:10;;;;;;;8.10;2.30;;;;;;;8.24;100.00;100379.69;4841068;29;20061;-83
2021/12/29 01:51:42;;;;;;;12.95;2.45;;;;;;;8.25;100.00;100374.34;4841560;29;20574;-83
2021/12/29 01:54:23;;;;;;;7.25;2.10;;;;;;;8.24;100.00;100377.91;4841545;29;20036;-82
2021/12/29 01:56:51;;;;;;;8.30;2.78;;;;;;;8.23;100.00;100377.97;4841325;29;20040;-83
2021/12/29 01:59:16;;;;;;;11.27;2.47;;;;;;;8.21;100.00;100375.41;4844640;29;20056;-81
2021/12/29 02:01:42;;;;;;;10.50;2.80;;;;;;;8.23;100.00;100383.25;4844801;29;20471;-83
2021/12/29 02:04:07;;;;;;;13.50;2.75;;;;;;;8.20;100.00;100386.88;4844807;29;20049;-81
2021/12/29 02:06:33;;;;;;;15.10;2.80;;;;;;;8.22;100.00;100400.00;4844615;29;20037;-81
2021/12/29 02:08:59;;;;;;;11.73;2.75;;;;;;;8.22;100.00;100400.00;4844720;29;20034;-82
2021/12/29 02:11:33;;;;;;;8.52;2.58;;;;;;;8.21;100.00;100409.72;4844253;29;20376;-82
2021/12/29 02:14:01;;;;;;;15.15;2.90;;;;;;;8.19;100.00;100403.63;4844932;29;20033;-78
2021/12/29 02:16:28;;;;;;;13.65;2.85;;;;;;;8.18;100.00;100407.19;4838531;29;20034;-77
2021/12/29 02:18:55;;;;;;;14.73;3.45;;;;;;;8.19;100.00;100409.75;4843979;29;20037;-75
2021/12/29 02:21:22;;;;;;;13.65;3.38;;;;;;;8.20;100.00;100410.63;4844191;29;20450;-77
2021/12/29 02:24:15;;;;;;;18.08;3.80;;;;;;;8.21;100.00;100417.63;4844707;29;20057;-77
2021/12/29 02:26:36;;;;;;;15.95;3.50;;;;;;;8.20;100.00;100422.03;4844013;29;20065;-76
2021/12/29 02:29:03;;;;;;;14.30;3.67;;;;;;;8.23;100.00;100412.28;4844333;29;20112;-77
2021/12/29 02:31:29;;;;;;;11.70;3.42;;;;;;;8.23;100.00;100407.00;4844228;29;20038;-72
2021/12/29 02:33:56;;;;;;;14.52;3.67;;;;;;;8.22;100.00;100405.28;4844290;29;20469;-72
2021/12/29 02:36:22;;;;;;;16.83;4.15;;;;;;;8.22;100.00;100411.41;4844210;29;20038;-79
2021/12/29 02:38:52;;;;;;;14.73;4.43;;;;;;;8.26;100.00;100427.97;4843567;29;20050;-73
2021/12/29 02:41:18;;;;;;;17.30;4.65;;;;;;;8.22;100.00;100429.00;4843777;29;20109;-77
2021/12/29 02:43:44;;;;;;;16.55;4.07;;;;;;;8.22;100.00;100437.78;4844137;29;20030;-76
2021/12/29 02:46:12;;;;;;;17.58;4.18;;;;;;;8.23;100.00;100441.28;4843711;29;20030;-77
2021/12/29 02:48:46;;;;;;;18.67;4.78;;;;;;;8.19;100.00;100432.63;4843828;29;20475;-76
2021/12/29 02:51:11;;;;;;;15.90;4.43;;;;;;;8.19;100.00;100432.63;4844012;29;20109;-77
2021/12/29 02:53:37;;;;;;;15.70;4.30;;;;;;;8.17;100.00;100453.81;4843804;29;20118;-76
2021/12/29 02:56:04;;;;;;;14.50;4.05;;;;;;;8.18;100.00;100452.00;4843979;29;20030;-86
2021/12/29 02:58:31;;;;;;;12.88;3.20;;;;;;;8.16;100.00;100449.44;4843542;29;20483;-82
2021/12/29 03:00:58;;;;;;;14.23;3.13;;;;;;;8.15;100.00;100465.34;4843763;29;20117;-85
2021/12/29 03:03:25;;;;;;;18.00;3.85;;;;;;;8.17;100.00;100479.31;4843670;29;20084;-84
2021/12/29 03:05:52;;;;;;;36.85;5.60;;;;;;;8.13;100.00;100478.59;4843821;29;20041;-77
2021/12/29 03:08:18;;;;;;;18.02;4.70;;;;;;;8.13;100.00;100485.63;4842804;29;20046;-80
2021/12/29 03:10:45;;;;;;;18.73;5.18;;;;;;;8.18;100.00;100488.94;4843392;29;20086;-84
2021/12/29 03:13:11;;;;;;;20.50;5.78;;;;;;;8.16;100.00;100502.19;4843633;29;20034;-84
2021/12/29 03:15:38;;;;;;;17.50;5.03;;;;;;;8.11;100.00;100496.25;4843616;29;20113;-83
2021/12/29 03:18:04;;;;;;;20.83;5.82;;;;;;;8.14;100.00;100487.34;4843007;29;20116;-80
2021/12/29 03:20:30;;;;;;;24.70;8.18;;;;;;;8.15;100.00;100508.38;4843327;29;20042;-71
2021/12/29 03:22:56;;;;;;;25.98;6.45;;;;;;;8.10;100.00;100509.50;4843644;29;20097;-83
2021/12/29 03:25:22;;;;;;;16.63;5.28;;;;;;;8.13;100.00;100496.19;4843781;29;20030;-83
2021/12/29 03:27:49;;;;;;;22.10;4.95;;;;;;;8.15;100.00;100505.75;4843636;29;20052;-84
2021/12/29 03:30:14;;;;;;;18.63;5.38;;;;;;;8.12;100.00;100511.16;4841631;29;20042;-83
2021/12/29 03:32:43;;;;;;;13.70;4.38;;;;;;;8.14;100.00;100505.81;4844152;29;20051;-80
2021/12/29 03:35:10;;;;;;;27.50;5.40;;;;;;;8.11;100.00;100509.44;4844756;29;20033;-83
2021/12/29 03:37:37;;;;;;;19.73;4.90;;;;;;;8.14;100.00;100524.28;4843213;29;20074;-83
2021/12/29 03:40:04;;;;;;;16.58;4.00;;;;;;;8.08;100.00;100532.44;4842786;29;20036;-73
2021/12/29 03:42:30;;;;;;;16.85;3.45;;;;;;;8.06;100.00;100535.13;4843208;29;20033;-73
2021/12/29 03:44:55;;;;;;;19.67;3.47;;;;;;;8.06;100.00;100532.50;4843253;29;20177;-78
2021/12/29 03:47:20;;;;;;;15.20;4.07;;;;;;;8.04;100.00;100537.84;4843289;29;20026;-83
2021/12/29 03:49:45;;;;;;;21.58;4.07;;;;;;;8.04;100.00;100537.84;4842853;29;20518;-84
2021/12/29 03:52:11;;;;;;;16.38;3.15;;;;;;;8.05;100.00;100538.69;4842609;29;20530;-84
2021/12/29 03:54:36;;;;;;;21.30;3.80;;;;;;;8.07;100.00;100538.63;4843040;29;20544;-83
2021/12/29 03:57:02;;;;;;;18.67;3.35;;;;;;;8.05;100.00;100543.97;4842834;29;20428;-84
2021/12/29 03:59:29;;;;;;;16.38;3.40;;;;;;;8.03;100.00;100541.38;4842904;29;20113;-84
2021/12/29 04:01:55;;;;;;;15.48;3.28;;;;;;;8.03;100.00;100546.66;4842017;29;20113;-83
2021/12/29 04:04:21;;;;;;;16.30;3.40;;;;;;;8.06;100.00;100545.69;4842626;29;20089;-84
2021/12/29 04:06:47;;;;;;;19.35;3.38;;;;;;;8.06;100.00;100555.34;4842680;29;20037;-72
2021/12/29 04:09:12;;;;;;;12.60;3.20;;;;;;;8.01;100.00;100548.50;4842494;29;20034;-71
2021/12/29 04:11:38;;;;;;;15.00;3.20;;;;;;;8.00;100.00;100538.84;4842033;29;20033;-82
2021/12/29 04:14:03;;;;;;;20.83;3.63;;;;;;;8.03;100.00;100538.75;4842905;29;20026;-81
2021/12/29 04:16:29;;;;;;;16.98;2.95;;;;;;;8.00;100.00;100543.28;4842601;29;20030;-75
2021/12/29 04:19:06;;;;;;;15.27;3.33;;;;;;;8.03;100.00;100543.16;4842431;29;20040;-74
2021/12/29 04:21:33;;;;;;;13.13;3.22;;;;;;;8.02;100.00;100547.56;4842194;29;20025;-85
2021/12/29 04:23:58;;;;;;;17.92;3.50;;;;;;;8.03;100.00;100553.69;4841264;29;20037;-85
2021/12/29 04:26:23;;;;;;;18.17;3.67;;;;;;;7.99;100.00;100568.81;4841417;29;20403;-85
2021/12/29 04:28:49;;;;;;;17.92;3.70;;;;;;;7.98;100.00;100556.53;4842272;29;20041;-84
2021/12/29 04:31:14;;;;;;;15.27;3.40;;;;;;;7.98;100.00;100566.19;4842587;29;20104;-85
2021/12/29 04:33:39;;;;;;;13.40;3.80;;;;;;;7.97;100.00;100565.34;4841861;29;20038;-85
2021/12/29 04:36:06;;;;;;;16.23;4.45;;;;;;;7.96;100.00;100576.81;4842279;29;20440;-85
2021/12/29 04:38:32;;;;;;;15.27;3.92;;;;;;;7.94;100.00;100581.31;4841978;29;20566;-84
2021/12/29 04:40:58;;;;;;;20.23;4.53;;;;;;;7.93;100.00;100586.59;4842463;29;20029;-84
2021/12/29 04:43:24;;;;;;;21.85;4.13;;;;;;;7.90;100.00;100587.59;4841248;29;20109;-81
2021/12/29 04:45:51;;;;;;;26.42;4.90;;;;;;;7.88;100.00;100592.91;4842216;29;20144;-83
2021/12/29 04:48:17;;;;;;;19.70;4.22;;;;;;;7.91;100.00;100596.38;4842010;29;20121;-81
2021/12/29 04:50:51;;;;;;;14.25;4.20;;;;;;;7.91;100.00;100599.84;4842066;29;20611;-81
2021/12/29 04:53:22;;;;;;;22.33;4.57;;;;;;;7.91;100.00;100607.75;4841798;29;20064;-72
2021/12/29 04:55:49;;;;;;;19.35;4.18;;;;;;;7.91;100.00;100604.28;4841887;29;20034;-71
2021/12/29 04:58:16;;;;;;;17.83;4.75;;;;;;;7.87;100.00;100617.56;4842425;29;20029;-71
2021/12/29 05:00:41;;;;;;;16.55;4.07;;;;;;;7.85;100.00;100608.88;4842051;29;20086;-83
2021/12/29 05:03:07;;;;;;;19.90;5.03;;;;;;;7.84;100.00;100606.31;4841816;29;20059;-71
2021/12/29 05:10:45;;;;;;;16.20;4.22;;;;;;;7.89;100.00;100620.16;4841891;29;20061;-71
2021/12/29 05:13:10;;;;;;;15.00;4.32;;;;;;;7.90;100.00;100606.03;4841892;29;20065;-71
2021/12/29 05:15:36;;;;;;;18.27;4.60;;;;;;;7.87;100.00;100603.53;4841384;29;20041;-81
2021/12/29 05:18:02;;;;;;;14.48;4.20;;;;;;;7.85;100.00;100613.25;4841671;29;20030;-71
2021/12/29 05:20:29;;;;;;;12.35;4.28;;;;;;;7.83;100.00;100615.13;4841477;29;20099;-80
2021/12/29 05:22:56;;;;;;;14.35;4.32;;;;;;;7.84;100.00;100616.84;4841677;29;20026;-82
2021/12/29 05:25:21;;;;;;;17.33;4.50;;;;;;;7.84;100.00;100617.69;4841197;29;20034;-80
2021/12/29 05:27:47;;;;;;;16.35;5.30;;;;;;;7.84;100.00;100619.47;4841949;29;20033;-78
2021/12/29 05:30:12;;;;;;;13.98;4.95;;;;;;;7.83;100.00;100620.38;4841575;29;20475;-82
2021/12/29 05:32:38;;;;;;;16.52;4.88;;;;;;;7.85;100.00;100626.44;4843378;29;20030;-81
2021/12/29 05:35:04;;;;;;;15.90;5.47;;;;;;;7.86;100.00;100612.34;4844775;29;20101;-82
2021/12/29 05:37:29;;;;;;;21.27;5.43;;;;;;;7.84;100.00;100615.06;4844749;29;20054;-81
2021/12/29 05:39:55;;;;;;;17.08;5.10;;;;;;;7.82;100.00;100605.47;4845148;29;20086;-81
2021/12/29 05:42:20;;;;;;;19.70;6.70;;;;;;;7.79;100.00;100613.53;4845012;29;20026;-81
2021/12/29 05:44:45;;;;;;;26.13;5.78;;;;;;;7.77;100.00;100625.88;4845313;29;20025;-81
2021/12/29 05:47:11;;;;;;;16.83;5.25;;;;;;;7.75;100.00;100620.66;4844515;29;20181;-81
2021/12/29 05:49:36;;;;;;;18.10;5.22;;;;;;;7.78;100.00;100623.19;4844688;29;20034;-81
2021/12/29 05:52:02;;;;;;;19.58;6.63;;;;;;;7.82;100.00;100616.88;4844954;29;20505;-81
2021/12/29 05:54:27;;;;;;;14.25;5.85;;;;;;;7.87;100.00;100628.09;4845248;29;20030;-81
2021/12/29 05:56:53;;;;;;;15.10;5.57;;;;;;;7.92;100.00;100633.22;4844568;29;20033;-78
2021/12/29 05:59:18;;;;;;;19.60;6.57;;;;;;;7.94;100.00;100636.69;4844552;29;20065;-82
2021/12/29 06:01:44;;;;;;;15.13;5.70;;;;;;;7.97;100.00;100630.44;4844765;29;20037;-82
2021/12/29 06:04:10;;;;;;;14.57;5.68;;;;;;;8.00;100.00;100636.41;4844931;29;20033;-82
2021/12/29 06:06:35;;;;;;;19.00;5.93;;;;;;;7.98;100.00;100632.13;4842948;29;20482;-80
2021/12/29 06:09:02;;;;;;;13.27;5.28;;;;;;;7.97;100.00;100639.19;4844240;29;20052;-83
2021/12/29 06:11:27;;;;;;;14.18;5.18;;;;;;;7.91;100.00;100644.69;4843879;29;20395;-81
2021/12/29 06:13:52;;;;;;;11.60;5.00;;;;;;;7.98;100.00;100642.66;4843241;29;20038;-83
2021/12/29 06:16:18;;;;;;;13.10;4.88;;;;;;;7.96;100.00;100636.63;4844958;29;20120;-83
2021/12/29 06:18:44;;;;;;;15.18;5.40;;;;;;;7.98;100.00;100642.66;4842776;29;20097;-83
2021/12/29 06:21:16;;;;;;;16.05;5.07;;;;;;;7.99;100.00;100639.13;4844019;29;20037;-71
2021/12/29 06:23:44;;;;;;;13.00;5.22;;;;;;;8.00;100.00;100638.22;4844573;29;20107;-74
2021/12/29 06:26:10;;;;;;;15.48;5.97;;;;;;;8.03;100.00;100638.06;4845755;29;20057;-71
2021/12/29 06:28:35;;;;;;;12.68;4.70;;;;;;;8.03;100.00;100643.34;4843800;29;20034;-71
2021/12/29 06:31:01;;;;;;;16.25;5.03;;;;;;;8.03;100.00;100646.88;4842916;29;20045;-70
2021/12/29 06:33:26;;;;;;;15.90;5.53;;;;;;;8.02;100.00;100653.06;4844240;29;20387;-70
2021/12/29 06:35:51;;;;;;;14.32;5.15;;;;;;;8.02;100.00;100652.22;4844717;29;20030;-77
2021/12/29 06:38:17;;;;;;;13.63;4.50;;;;;;;7.99;100.00;100655.81;4842234;29;20149;-70
2021/12/29 06:40:42;;;;;;;15.05;4.45;;;;;;;7.99;100.00;100654.94;4842809;29;20040;-72
2021/12/29 06:43:07;;;;;;;12.88;4.80;;;;;;;7.97;100.00;100652.38;4843297;29;20045;-74
2021/12/29 06:45:33;;;;;;;11.00;5.00;;;;;;;8.00;100.00;100664.56;4843516;29;20091;-75
2021/12/29 06:47:58;;;;;;;14.52;4.60;;;;;;;8.02;100.00;100653.06;4842995;29;20041;-70
2021/12/29 06:50:24;;;;;;;9.82;4.20;;;;;;;7.98;100.00;100664.66;4842589;29;20037;-82
2021/12/29 06:52:49;;;;;;;14.57;4.78;;;;;;;7.98;100.00;100677.81;4840908;29;20037;-81
2021/12/29 06:55:15;;;;;;;15.27;5.13;;;;;;;8.00;100.00;100672.50;4843800;29;20053;-75
2021/12/29 06:57:40;;;;;;;14.98;4.72;;;;;;;7.97;100.00;100668.19;4842563;29;20403;-79
2021/12/29 07:00:07;;;;;;;11.20;4.68;;;;;;;7.94;100.00;100672.72;4843971;29;20034;-83
2021/12/29 07:02:32;;;;;;;12.15;4.80;;;;;;;7.95;100.00;100672.66;4840468;29;20056;-83
2021/12/29 07:04:57;;;;;;;15.02;4.95;;;;;;;7.97;100.00;100678.75;4843068;29;20490;-82
2021/12/29 07:07:23;;;;;;;17.42;6.15;;;;;;;7.97;100.00;100694.56;4843623;29;20030;-82
2021/12/29 07:09:48;;;;;;;11.63;5.05;;;;;;;7.97;100.00;100683.16;4843046;29;20034;-83
2021/12/29 07:12:13;;;;;;;13.88;5.10;;;;;;;7.99;100.00;100691.84;4843049;29;20046;-83
2021/12/29 07:14:39;;;;;;;11.35;5.50;;;;;;;8.01;100.00;100703.22;4843377;29;20029;-82
2021/12/29 07:17:05;;;;;;;14.07;5.32;;;;;;;7.99;100.00;100710.31;4843449;29;20382;-82
2021/12/29 07:19:31;;;;;;;14.30;5.38;;;;;;;7.98;100.00;100711.22;4843136;29;20048;-81
2021/12/29 07:22:00;;;;;;;14.85;5.95;;;;;;;8.00;100.00;100719.97;4843075;29;20120;-82
2021/12/29 07:24:26;;;;;;;13.77;6.15;;;;;;;7.99;100.00;100710.31;4833989;29;20411;-79
2021/12/29 07:26:52;;;;;;;14.52;5.93;;;;;;;8.00;100.00;100709.41;4836461;29;20482;-79
2021/12/29 07:29:17;;;;;;;13.30;5.55;;;;;;;7.97;100.00;100705.09;4843701;29;20063;-80
2021/12/29 07:31:43;;;;;;;15.45;6.07;;;;;;;7.96;100.00;100718.34;4841961;29;20090;-82
2021/12/29 07:34:09;;;;;;;16.45;6.32;;;;;;;7.94;100.00;100712.25;4841876;29;20058;-82
2021/12/29 07:36:34;;;;;;;15.27;6.55;;;;;;;7.88;100.00;100714.19;4843019;29;20030;-74
2021/12/29 07:39:00;;;;;;;24.05;7.47;;;;;;;7.92;100.00;100716.75;4842327;29;20066;-79
2021/12/29 07:41:25;;;;;;;18.35;6.68;;;;;;;7.93;100.00;100707.91;4843016;29;20372;-73
2021/12/29 07:43:51;;;;;;;18.27;7.70;;;;;;;7.93;100.00;100713.16;4842869;29;20037;-79
2021/12/29 07:46:17;;;;;;;19.15;8.75;;;;;;;7.95;100.00;100698.16;4842831;29;20071;-74
2021/12/29 07:48:43;;;;;;;13.73;6.57;;;;;;;7.95;100.00;100696.38;4843183;29;20041;-80
2021/12/29 07:51:09;;;;;;;17.85;7.07;;;;;;;7.94;100.00;100699.97;4842824;29;20403;-80
2021/12/29 07:53:37;;;;;;;16.40;7.70;;;;;;;7.95;100.00;100692.91;4842474;29;20056;-80
2021/12/29 07:56:05;;;;;;;17.83;7.70;;;;;;;7.95;100.00;100699.00;4841867;29;20029;-81
2021/12/29 07:58:30;;;;;;;17.35;8.02;;;;;;;7.94;100.00;100692.03;4841860;29;20033;-80
2021/12/29 08:00:56;;;;;;;19.77;8.02;;;;;;;7.94;100.00;100699.06;4833501;29;20037;-80
2021/12/29 08:03:22;;;;;;;16.95;7.68;;;;;;;7.95;100.00;100701.66;4842548;29;20045;-80
2021/12/29 08:05:50;;;;;;;14.77;7.72;;;;;;;7.93;100.00;100708.78;4833702;29;20117;-80
2021/12/29 08:08:16;;;;;;;15.88;6.88;;;;;;;7.90;100.00;100700.97;4841072;29;20053;-79
2021/12/29 08:10:41;;;;;;;14.35;7.22;;;;;;;7.89;100.00;100707.16;4842184;29;20030;-76
2021/12/29 08:13:08;;;;;;;23.05;8.20;;;;;;;7.88;100.00;100706.28;4843023;29;20120;-81
2021/12/29 08:15:35;;;;;;;30.73;9.18;;;;;;;7.88;100.00;100700.16;4842296;29;20037;-80
2021/12/29 08:18:03;;;;;;;16.30;7.55;;;;;;;7.90;100.00;100705.38;4840779;29;20030;-76
2021/12/29 08:20:29;;;;;;;22.95;8.07;;;;;;;7.89;100.00;100707.16;4842891;29;20034;-80
2021/12/29 08:22:55;;;;;;;29.67;10.38;;;;;;;7.84;100.00;100707.31;4841841;29;20113;-75
2021/12/29 08:25:20;;;;;;;17.35;8.02;;;;;;;7.82;100.00;100705.66;4839839;29;20158;-77
2021/12/29 08:27:46;;;;;;;17.13;7.13;;;;;;;7.82;100.00;100703.88;4839085;29;20471;-77
2021/12/29 08:30:12;;;;;;;17.38;6.90;;;;;;;7.81;100.00;100702.16;4842566;29;20044;-75
2021/12/29 08:32:37;;;;;;;17.00;7.00;;;;;;;7.80;100.00;100710.09;4841291;29;20033;-78
2021/12/29 08:35:04;;;;;;;18.65;7.47;;;;;;;7.80;100.00;100715.38;4841900;29;20121;-70
2021/12/29 08:37:30;;;;;;;20.67;7.07;;;;;;;7.83;100.00;100723.19;4841519;29;20025;-74
2021/12/29 08:39:55;;;;;;;17.10;6.90;;;;;;;7.83;100.00;100731.13;4841486;29;20475;-75
2021/12/29 08:42:22;;;;;;;24.88;8.32;;;;;;;7.82;100.00;100713.56;4842109;29;20124;-75
2021/12/29 08:44:47;;;;;;;25.42;7.45;;;;;;;7.86;100.00;100709.91;4842175;29;20049;-79
2021/12/29 08:47:12;;;;;;;29.65;9.73;;;;;;;7.84;100.00;100720.50;4841959;29;20026;-79
2021/12/29 08:49:38;;;;;;;26.20;8.48;;;;;;;7.83;100.00;100718.78;4841866;29;20054;-78
2021/12/29 08:52:04;;;;;;;18.27;6.70;;;;;;;7.84;100.00;100706.47;4841697;29;20034;-79
2021/12/29 08:54:30;;;;;;;16.23;6.63;;;;;;;7.83;100.00;100712.66;4841684;29;20391;-81
2021/12/29 08:56:55;;;;;;;11.55;6.07;;;;;;;7.84;100.00;100715.22;4841661;29;20030;-75
2021/12/29 08:59:21;;;;;;;16.35;9.55;;;;;;;7.92;100.00;100706.19;4842146;29;20039;-70
2021/12/29 09:01:47;;;;;;;22.23;9.57;;;;;;;8.02;100.00;100705.78;4841169;29;20029;-59
2021/12/29 09:04:12;;;;;;;22.85;6.40;;;;;;;8.03;100.00;100691.69;4841072;29;20049;-61
2021/12/29 09:06:38;;;;;;;10.45;6.32;;;;;;;8.03;100.00;100698.72;4838578;29;20034;-68
2021/12/29 09:09:04;;;;;;;15.57;6.40;;;;;;;8.11;100.00;100704.59;4839879;29;21175;-80
2021/12/29 09:11:30;;;;;;;12.35;6.55;;;;;;;8.15;100.00;100708.84;4839318;29;20046;-63
2021/12/29 09:13:56;;;;;;;14.45;6.47;;;;;;;8.18;100.00;100702.59;4838855;29;20038;-62
2021/12/29 09:16:22;;;;;;;12.98;6.15;;;;;;;8.22;100.00;100696.28;4840076;29;20048;-71
2021/12/29 09:18:47;;;;;;;13.88;7.15;;;;;;;8.22;100.00;100680.44;4841009;29;20101;-71
2021/12/29 09:21:15;;;;;;;15.38;7.63;;;;;;;8.26;100.00;100679.44;4837073;29;20026;-63
2021/12/29 09:23:42;;;;;;;14.45;7.13;;;;;;;8.30;100.00;100682.81;4841355;29;20111;-68
2021/12/29 09:26:13;;;;;;;16.13;8.27;;;;;;;8.43;100.00;100686.72;4840982;29;20029;-65
2021/12/29 09:28:40;;;;;;;18.90;7.60;;;;;;;8.51;100.00;100689.09;4831925;29;20030;-67
2021/12/29 09:31:05;;;;;;;15.82;7.13;;;;;;;8.59;100.00;100701.97;4834988;29;20061;-63
2021/12/29 09:33:31;;;;;;;12.52;6.53;;;;;;;8.69;100.00;100701.53;4835397;29;20486;-60
2021/12/29 09:36:01;;;;;;;16.27;6.00;;;;;;;8.78;100.00;100704.75;4839904;29;20052;-65
2021/12/29 09:38:26;;;;;;;19.67;10.80;;;;;;;8.85;100.00;100706.25;4838098;29;20050;-61
2021/12/29 09:40:52;;;;;;;21.85;11.93;;;;;;;8.93;100.00;100698.88;4835565;29;20067;-63
2021/12/29 09:43:18;;;;;;;15.13;7.45;;;;;;;8.89;100.00;100696.41;4839500;29;20029;-64
2021/12/29 09:45:46;;;;;;;25.15;13.77;;;;;;;8.90;100.00;100687.56;4839271;29;20026;-71
2021/12/29 09:48:12;;;;;;;25.13;14.80;;;;;;;8.82;100.00;100686.09;4838152;29;20034;-67
2021/12/29 09:50:39;;;;;;;16.75;7.15;;;;;;;8.77;100.00;100682.78;4839025;29;20026;-61
2021/12/29 09:53:06;;;;;;;15.20;5.32;;;;;;;8.69;100.00;100679.59;4840127;29;20026;-78
2021/12/29 09:55:32;;;;;;;13.15;5.47;;;;;;;8.56;100.00;100675.72;4838778;29;20102;-76
2021/12/29 09:57:59;;;;;;;12.30;6.10;;;;;;;8.43;100.00;100675.31;4840008;29;20448;-61
2021/12/29 10:00:28;;;;;;;12.63;6.00;;;;;;;8.45;100.00;100678.72;4840452;29;20094;-61
2021/12/29 10:02:56;;;;;;;9.20;5.07;;;;;;;8.49;100.00;100667.16;4840221;29;20120;-63
2021/12/29 10:08:01;;;;;;;9.88;6.00;;;;;;;8.48;100.00;100665.47;5071857;23;20415;-64
2021/12/29 10:10:27;;;;;;;10.10;5.22;;;;;;;8.48;100.00;100660.19;4826910;29;20047;-73
2021/12/29 10:12:53;;;;;;;9.20;5.47;;;;;;;8.43;100.00;100655.03;4840587;29;20069;-74
2021/12/29 10:15:18;;;;;;;8.88;5.75;;;;;;;8.41;100.00;100645.47;4841114;29;20116;-76
2021/12/29 10:17:44;;;;;;;8.30;5.10;;;;;;;8.36;100.00;100646.50;4833067;29;20105;-76
2021/12/29 10:20:16;;;;;;;19.80;12.20;;;;;;;8.39;100.00;100649.94;4842804;29;20040;-62
2021/12/29 10:22:42;;;;;;;20.35;12.10;;;;;;;8.47;100.00;100645.25;4844232;29;20030;-64
2021/12/29 10:25:15;;;;;;;11.60;6.72;;;;;;;8.60;100.00;100640.34;4844692;29;20037;-78
2021/12/29 10:27:42;;;;;;;12.15;5.63;;;;;;;8.57;100.00;100640.47;4844356;29;20113;-77
2021/12/29 10:30:28;;;;;;;10.98;5.15;;;;;;;8.52;100.00;100641.50;4841353;29;20086;-79
2021/12/29 10:32:56;;;;;;;11.98;5.25;;;;;;;8.53;100.00;100652.94;4844203;29;20118;-75
2021/12/29 10:35:31;;;;;;;9.73;5.40;;;;;;;8.50;100.00;100642.50;4841851;29;20036;-82
2021/12/29 10:38:13;;;;;;;9.85;4.70;;;;;;;8.50;100.00;100645.13;4844414;29;20034;-76
2021/12/29 10:40:38;;;;;;;11.13;4.80;;;;;;;8.45;100.00;100649.69;4831377;29;20029;-82
2021/12/29 10:43:04;;;;;;;13.45;5.22;;;;;;;8.38;100.00;100654.38;4839121;29;20030;-79
2021/12/29 10:45:39;;;;;;;13.38;5.45;;;;;;;8.37;100.00;100664.03;4825465;29;20046;-80
2021/12/29 10:51:09;;;;;;;10.68;5.47;;;;;;;8.36;100.00;100661.47;5053768;23;20049;-72
2021/12/29 10:53:38;;;;;;;10.63;5.35;;;;;;;8.30;100.00;100665.22;4860390;29;20045;-78
2021/12/29 10:56:05;;;;;;;10.75;6.10;;;;;;;8.25;100.00;100646.06;4862052;29;20030;-79
2021/12/29 10:58:34;;;;;;;13.32;6.18;;;;;;;8.18;100.00;100661.28;4862028;29;20509;-85
2021/12/29 11:01:10;;;;;;;14.95;5.80;;;;;;;8.17;100.00;100653.38;4862483;29;20047;-75
2021/12/29 11:03:47;;;;;;;13.52;6.10;;;;;;;8.15;100.00;100644.69;5092776;23;20470;-76
2021/12/29 11:06:16;;;;;;;12.50;6.70;;;;;;;8.12;100.00;100621.94;4834047;29;20114;-72
2021/12/29 11:08:48;;;;;;;11.35;6.40;;;;;;;8.13;100.00;100604.31;4826031;29;20379;-82
2021/12/29 11:11:14;;;;;;;14.82;6.68;;;;;;;8.13;100.00;100601.69;4825644;29;20041;-74
2021/12/29 11:13:41;;;;;;;13.13;7.38;;;;;;;8.15;100.00;100605.13;4826150;29;20462;-78
2021/12/29 11:16:07;;;;;;;14.93;6.88;;;;;;;8.22;100.00;100614.50;4831369;29;20125;-77
2021/12/29 11:18:48;;;;;;;17.17;7.10;;;;;;;8.29;100.00;100612.50;4842900;29;20133;-74
2021/12/29 11:21:34;;;;;;;12.85;7.18;;;;;;;8.36;100.00;100612.22;4832586;29;20046;-73
2021/12/29 11:24:15;;;;;;;14.73;6.70;;;;;;;8.41;100.00;100598.81;4825074;29;20030;-73
2021/12/29 11:26:41;;;;;;;14.20;7.50;;;;;;;8.47;100.00;100600.41;4837214;29;20121;-74